Aérodrome :
LOGIN :

S'inscrire | Disclaimer

   EN    FR    IT 

 










Légende :    VFR   VFR Marginal   IFR   IFR Intensif   IFR Très Intensif
Visi : 
Plafond : 
>= 8 km
>= 3000ft
5 à 8 km
1000 à 3000 ft
1500m à 5 km
500 à 1000 ft
800 à 1500m
200 à 500 ft
< 800m
< 200 ft
Symboles :   Orages  Brouillard  Fortes neiges  Fortes précipitations  Vent > 20 kt
SIGMETs :   Divers  Orages  Givrage  Turbulence  Onde Orograph.  Cendres Volcan.







- Altitude de l'aérodrome : 157 ft
- Code IATA : LIL
- Voir les cartes d'approche


LFQQ - Lille Lesquin

DERNIER METAR :
  • 230000Z AUTO 24007KT CAVOK 07/06 Q1018 NOSIG

METARs EXPIRÉS :
  • 222330Z AUTO 25008KT CAVOK 07/06 Q1018 NOSIG
  • 222300Z AUTO 25007KT CAVOK 08/05 Q1018 NOSIG
  • 222230Z AUTO 24007KT CAVOK 08/05 Q1018 NOSIG
  • 222200Z AUTO 23006KT 9999 FEW037 BKN054 BKN072 09/06 Q1018 NOSIG
  • 222130Z AUTO 26006KT CAVOK 08/05 Q1018 NOSIG

TAF TAF LFQQ
Valide du 23 à 00h jusqu'au 24 à 06h UTC


222300Z 2300/2406 26008KT 9999 SCT030
TEMPO 2302/2306 3000 BR
TEMPO 2308/2312 4000 RA BKN008 OVC020
FM231200 20010KT 9999 OVC013
TEMPO 2312/2406 2000 DZRA OVC003
ATIS : +33 3 20 16 19 54
Pas de NOTAMs connus pour ce terrain.
1 SIGMET publié pour la FIR Paris (LFFF) :
 
Turbulence forte
LFFF SIGMET 6 VALID 222300/230300 LFPW
LFFF PARIS FIR/UIR SEV TURB FCST E OF LINE N5045 E00315 - N4745 E00445 FL220/320 MOV E 15KT NC=



MET'MAP, la Météo Aéronautique d'un coup d'oeil ! - Copyright ORBIFLY Décembre 2007 - Disclaimer

ORBIFLY MET'MAP TEAM :

Programmation & Développement : Alexandra Zaïnal
Conception & Développement : Baudouin d'Aumeries
Co-Programmation & Développement : Marc-Olivier Méhu
Soutien technique & logistique : Manuel Goepfert

Contact : metmap@orbifly.com




SOURCES & CREDITS :

   NOAA